SVMG/PMV METAR and TAF weather

Enter ICAO airport designator
Station Type Date Time Source
SVMG METAR 2022/09/28 18:03 UTC NOAA

SVMG 281803Z AUTO 17007KT NCD 32/24 Q1010


Station Type Date Time Source
SVMG Decoded METAR 2022/09/28 18:03 UTC NOAA

Margarita / Del Carib, Venezuela (SVMG) 10-55N 063-59W
Sep 28, 2022 - 02:03 PM EDT / 2022.09.28 1803 UTC
Wind: from the S (170 degrees) at 8 MPH (7 KT):0
Temperature: 89 F (32 C)
Heat index: 98.4 F (36.9 C):1
Dew Point: 75 F (24 C)
Relative Humidity: 62%
Pressure (altimeter): 29.83 in. Hg (1010 hPa)
ob: SVMG 281803Z AUTO 17007KT NCD 32/24 Q1010
cycle: 18

Station Type Date Time Source
SVMG TAF 2022/09/28 18:11 UTC NOAA

TAF SVMG 281600Z 2818/2918 07012KT 9999 FEW010 TX33/2818Z TN23/2908Z
TEMPO 2820/2900 09013KT 9000 DZ SCT010 SCT080

Example: see airport list